Ferdinand, Vermont
Current Conditions -  °F | °C
As of 11:35 PM on Saturday 25 Oct 2014 (Local Time) from KCDA Reporting Station
Haze Haze  
Wind Chill: 44°   Ceiling: Unl
Heat Index: 46°   Visibility: 4mi
Dew Point: 44°   Wind: 5mph
Humidity: 92%   Direction: 130°SE
Pressure: 29.46"   Gusts: NA
Location:  44.7348°N, 71.6296°W
Report Text: KCDA 260335Z AUTO 13004KT 4SM BR SCT070 08/07 A2946 RMK AO2 T00780065
Loading
Personal Weather Stations






























Interactive Weather Map
Tropical Storm Tracking
New forecast layout! Learn more

10-Day Weather Forecast

Advertisements
Track Severe Weather on mobile